sensor_id;sensor_type;location;lat;lon;timestamp;temperature;humidity
17797;DHT22;55596;53.554;9.916;2022-10-16T00:00:38;13.10;99.90
17797;DHT22;55596;53.554;9.916;2022-10-16T00:03:06;13.10;99.90
17797;DHT22;55596;53.554;9.916;2022-10-16T00:05:37;13.10;99.90
17797;DHT22;55596;53.554;9.916;2022-10-16T00:08:05;13.10;99.90
17797;DHT22;55596;53.554;9.916;2022-10-16T00:10:33;13.00;99.90
17797;DHT22;55596;53.554;9.916;2022-10-16T00:13:00;13.20;99.90
17797;DHT22;55596;53.554;9.916;2022-10-16T00:15:27;12.80;99.90
17797;DHT22;55596;53.554;9.916;2022-10-16T00:17:54;13.10;99.90
17797;DHT22;55596;53.554;9.916;2022-10-16T00:20:21;13.60;99.90
17797;DHT22;55596;53.554;9.916;2022-10-16T00:22:48;13.10;99.90
17797;DHT22;55596;53.554;9.916;2022-10-16T00:25:14;13.00;99.90
17797;DHT22;55596;53.554;9.916;2022-10-16T00:27:43;13.10;99.90
17797;DHT22;55596;53.554;9.916;2022-10-16T00:30:10;12.70;99.90
17797;DHT22;55596;53.554;9.916;2022-10-16T00:35:07;13.00;99.90
17797;DHT22;55596;53.554;9.916;2022-10-16T00:37:34;13.00;99.90
17797;DHT22;55596;53.554;9.916;2022-10-16T00:40:01;13.10;99.90
17797;DHT22;55596;53.554;9.916;2022-10-16T00:42:28;13.00;99.90
17797;DHT22;55596;53.554;9.916;2022-10-16T00:44:57;13.10;99.90
17797;DHT22;55596;53.554;9.916;2022-10-16T00:47:27;12.80;99.90
17797;DHT22;55596;53.554;9.916;2022-10-16T00:49:58;13.00;99.90
17797;DHT22;55596;53.554;9.916;2022-10-16T00:52:26;13.30;99.90
17797;DHT22;55596;53.554;9.916;2022-10-16T00:54:54;13.00;99.90
17797;DHT22;55596;53.554;9.916;2022-10-16T00:57:21;13.20;99.90
17797;DHT22;55596;53.554;9.916;2022-10-16T00:59:48;13.00;99.90
17797;DHT22;55596;53.554;9.916;2022-10-16T01:02:17;13.10;99.90
17797;DHT22;55596;53.554;9.916;2022-10-16T01:04:46;13.20;99.90
17797;DHT22;55596;53.554;9.916;2022-10-16T01:07:18;13.00;99.90
17797;DHT22;55596;53.554;9.916;2022-10-16T01:09:57;13.10;99.90
17797;DHT22;55596;53.554;9.916;2022-10-16T01:12:36;13.00;99.90
17797;DHT22;55596;53.554;9.916;2022-10-16T01:15:10;13.00;99.90
17797;DHT22;55596;53.554;9.916;2022-10-16T01:17:43;12.90;99.90
17797;DHT22;55596;53.554;9.916;2022-10-16T01:20:17;13.00;99.90
17797;DHT22;55596;53.554;9.916;2022-10-16T01:22:55;13.30;99.90
17797;DHT22;55596;53.554;9.916;2022-10-16T01:25:30;13.00;99.90
17797;DHT22;55596;53.554;9.916;2022-10-16T01:28:01;12.90;99.90
17797;DHT22;55596;53.554;9.916;2022-10-16T01:30:30;12.80;99.90
17797;DHT22;55596;53.554;9.916;2022-10-16T01:33:02;12.70;99.90
17797;DHT22;55596;53.554;9.916;2022-10-16T01:35:36;12.70;99.90
17797;DHT22;55596;53.554;9.916;2022-10-16T01:38:06;12.70;99.90
17797;DHT22;55596;53.554;9.916;2022-10-16T01:40:36;12.50;99.90
17797;DHT22;55596;53.554;9.916;2022-10-16T01:43:12;12.80;99.90
17797;DHT22;55596;53.554;9.916;2022-10-16T01:45:41;10.90;99.90
17797;DHT22;55596;53.554;9.916;2022-10-16T01:48:12;11.90;99.90
17797;DHT22;55596;53.554;9.916;2022-10-16T01:50:41;12.50;99.90
17797;DHT22;55596;53.554;9.916;2022-10-16T01:53:12;12.40;99.90
17797;DHT22;55596;53.554;9.916;2022-10-16T01:55:42;12.40;99.90
17797;DHT22;55596;53.554;9.916;2022-10-16T01:58:13;12.30;99.90
17797;DHT22;55596;53.554;9.916;2022-10-16T02:00:43;12.30;99.90
17797;DHT22;55596;53.554;9.916;2022-10-16T02:03:12;12.60;99.90
17797;DHT22;55596;53.554;9.916;2022-10-16T02:05:44;12.00;99.90
17797;DHT22;55596;53.554;9.916;2022-10-16T02:08:12;12.20;99.90
17797;DHT22;55596;53.554;9.916;2022-10-16T02:10:42;12.40;99.90
17797;DHT22;55596;53.554;9.916;2022-10-16T02:13:12;12.30;99.90
17797;DHT22;55596;53.554;9.916;2022-10-16T02:15:40;12.30;99.90
17797;DHT22;55596;53.554;9.916;2022-10-16T02:18:08;12.50;99.90
17797;DHT22;55596;53.554;9.916;2022-10-16T02:20:47;12.60;99.90
17797;DHT22;55596;53.554;9.916;2022-10-16T02:23:22;12.30;99.90
17797;DHT22;55596;53.554;9.916;2022-10-16T02:25:50;14.00;99.90
17797;DHT22;55596;53.554;9.916;2022-10-16T02:28:26;12.10;99.90
17797;DHT22;55596;53.554;9.916;2022-10-16T02:30:57;12.10;99.90
17797;DHT22;55596;53.554;9.916;2022-10-16T02:33:26;12.10;99.90
17797;DHT22;55596;53.554;9.916;2022-10-16T02:35:54;12.00;99.90
17797;DHT22;55596;53.554;9.916;2022-10-16T02:38:25;12.00;99.90
17797;DHT22;55596;53.554;9.916;2022-10-16T02:40:54;12.10;99.90
17797;DHT22;55596;53.554;9.916;2022-10-16T02:43:23;12.00;99.90
17797;DHT22;55596;53.554;9.916;2022-10-16T02:45:51;12.00;99.90
17797;DHT22;55596;53.554;9.916;2022-10-16T02:48:17;12.00;99.90
17797;DHT22;55596;53.554;9.916;2022-10-16T02:50:44;11.90;99.90
17797;DHT22;55596;53.554;9.916;2022-10-16T02:53:11;11.90;99.90
17797;DHT22;55596;53.554;9.916;2022-10-16T02:55:38;11.80;99.90
17797;DHT22;55596;53.554;9.916;2022-10-16T02:58:04;11.80;99.90
17797;DHT22;55596;53.554;9.916;2022-10-16T03:00:32;11.80;99.90
17797;DHT22;55596;53.554;9.916;2022-10-16T03:02:59;11.80;99.90
17797;DHT22;55596;53.554;9.916;2022-10-16T03:05:26;11.60;99.90
17797;DHT22;55596;53.554;9.916;2022-10-16T03:07:53;11.60;99.90
17797;DHT22;55596;53.554;9.916;2022-10-16T03:10:20;11.60;99.90
17797;DHT22;55596;53.554;9.916;2022-10-16T03:12:46;11.60;99.90
17797;DHT22;55596;53.554;9.916;2022-10-16T03:15:13;11.50;99.90
17797;DHT22;55596;53.554;9.916;2022-10-16T03:17:41;11.40;99.90
17797;DHT22;55596;53.554;9.916;2022-10-16T03:20:09;11.10;99.90
17797;DHT22;55596;53.554;9.916;2022-10-16T03:22:36;11.60;99.90
17797;DHT22;55596;53.554;9.916;2022-10-16T03:25:03;11.30;99.90
17797;DHT22;55596;53.554;9.916;2022-10-16T03:27:30;11.50;99.90
17797;DHT22;55596;53.554;9.916;2022-10-16T03:29:57;11.40;99.90
17797;DHT22;55596;53.554;9.916;2022-10-16T03:32:23;11.50;99.90
17797;DHT22;55596;53.554;9.916;2022-10-16T03:34:52;11.50;99.90
17797;DHT22;55596;53.554;9.916;2022-10-16T03:37:19;11.50;99.90
17797;DHT22;55596;53.554;9.916;2022-10-16T03:39:46;11.50;99.90
17797;DHT22;55596;53.554;9.916;2022-10-16T03:42:13;11.50;99.90
17797;DHT22;55596;53.554;9.916;2022-10-16T03:44:40;11.50;99.90
17797;DHT22;55596;53.554;9.916;2022-10-16T03:47:06;11.60;99.90
17797;DHT22;55596;53.554;9.916;2022-10-16T03:49:33;13.00;99.90
17797;DHT22;55596;53.554;9.916;2022-10-16T03:52:01;11.70;99.90
17797;DHT22;55596;53.554;9.916;2022-10-16T03:54:28;11.50;99.90
17797;DHT22;55596;53.554;9.916;2022-10-16T03:56:55;11.40;99.90
17797;DHT22;55596;53.554;9.916;2022-10-16T03:59:22;11.50;99.90
17797;DHT22;55596;53.554;9.916;2022-10-16T04:01:48;11.60;99.90
17797;DHT22;55596;53.554;9.916;2022-10-16T04:04:15;11.70;99.90
17797;DHT22;55596;53.554;9.916;2022-10-16T04:06:42;12.80;99.90
17797;DHT22;55596;53.554;9.916;2022-10-16T04:09:10;11.50;99.90
17797;DHT22;55596;53.554;9.916;2022-10-16T04:11:37;11.50;99.90
17797;DHT22;55596;53.554;9.916;2022-10-16T04:14:04;11.50;99.90
17797;DHT22;55596;53.554;9.916;2022-10-16T04:16:31;11.50;99.90
17797;DHT22;55596;53.554;9.916;2022-10-16T04:18:58;11.50;99.90
17797;DHT22;55596;53.554;9.916;2022-10-16T04:21:24;11.50;99.90
17797;DHT22;55596;53.554;9.916;2022-10-16T04:23:51;11.20;99.90
17797;DHT22;55596;53.554;9.916;2022-10-16T04:26:19;11.60;99.90
17797;DHT22;55596;53.554;9.916;2022-10-16T04:28:46;11.70;99.90
17797;DHT22;55596;53.554;9.916;2022-10-16T04:31:13;11.70;99.90
17797;DHT22;55596;53.554;9.916;2022-10-16T04:33:42;11.70;99.90
17797;DHT22;55596;53.554;9.916;2022-10-16T04:36:08;11.60;99.90
17797;DHT22;55596;53.554;9.916;2022-10-16T04:38:36;11.70;99.90
17797;DHT22;55596;53.554;9.916;2022-10-16T04:41:05;11.60;99.90
17797;DHT22;55596;53.554;9.916;2022-10-16T04:43:34;11.70;99.90
17797;DHT22;55596;53.554;9.916;2022-10-16T04:46:01;11.70;99.90
17797;DHT22;55596;53.554;9.916;2022-10-16T04:48:30;11.70;99.90
17797;DHT22;55596;53.554;9.916;2022-10-16T04:50:56;11.70;99.90
17797;DHT22;55596;53.554;9.916;2022-10-16T04:53:23;11.60;99.90
17797;DHT22;55596;53.554;9.916;2022-10-16T04:55:50;11.60;99.90
17797;DHT22;55596;53.554;9.916;2022-10-16T04:58:17;11.60;99.90
17797;DHT22;55596;53.554;9.916;2022-10-16T05:00:45;11.50;99.90
17797;DHT22;55596;53.554;9.916;2022-10-16T05:03:12;11.50;99.90
17797;DHT22;55596;53.554;9.916;2022-10-16T05:05:42;11.50;99.90
17797;DHT22;55596;53.554;9.916;2022-10-16T05:08:09;11.50;99.90
17797;DHT22;55596;53.554;9.916;2022-10-16T05:10:36;11.50;99.90
17797;DHT22;55596;53.554;9.916;2022-10-16T05:13:03;11.50;99.90
17797;DHT22;55596;53.554;9.916;2022-10-16T05:15:29;11.60;99.90
17797;DHT22;55596;53.554;9.916;2022-10-16T05:17:58;11.50;99.90
17797;DHT22;55596;53.554;9.916;2022-10-16T05:20:24;11.50;99.90
17797;DHT22;55596;53.554;9.916;2022-10-16T05:22:51;11.40;99.90
17797;DHT22;55596;53.554;9.916;2022-10-16T05:25:18;11.50;99.90
17797;DHT22;55596;53.554;9.916;2022-10-16T05:27:47;11.40;99.90
17797;DHT22;55596;53.554;9.916;2022-10-16T05:30:15;11.40;99.90
17797;DHT22;55596;53.554;9.916;2022-10-16T05:32:42;11.40;99.90
17797;DHT22;55596;53.554;9.916;2022-10-16T05:35:14;11.40;99.90
17797;DHT22;55596;53.554;9.916;2022-10-16T05:37:40;11.50;99.90
17797;DHT22;55596;53.554;9.916;2022-10-16T05:40:08;11.90;99.90
17797;DHT22;55596;53.554;9.916;2022-10-16T05:42:35;11.70;99.90
17797;DHT22;55596;53.554;9.916;2022-10-16T05:45:03;11.80;99.90
17797;DHT22;55596;53.554;9.916;2022-10-16T05:47:30;11.90;99.90
17797;DHT22;55596;53.554;9.916;2022-10-16T05:49:57;12.10;99.90
17797;DHT22;55596;53.554;9.916;2022-10-16T05:52:26;12.00;99.90
17797;DHT22;55596;53.554;9.916;2022-10-16T05:54:53;12.00;99.90
17797;DHT22;55596;53.554;9.916;2022-10-16T05:57:20;12.00;99.90
17797;DHT22;55596;53.554;9.916;2022-10-16T05:59:46;12.10;99.90
17797;DHT22;55596;53.554;9.916;2022-10-16T06:02:13;12.00;99.90
17797;DHT22;55596;53.554;9.916;2022-10-16T06:04:41;12.20;99.90
17797;DHT22;55596;53.554;9.916;2022-10-16T06:07:07;12.50;99.90
17797;DHT22;55596;53.554;9.916;2022-10-16T06:09:35;12.90;99.90
17797;DHT22;55596;53.554;9.916;2022-10-16T06:12:03;12.40;99.90
17797;DHT22;55596;53.554;9.916;2022-10-16T06:14:29;12.30;99.90
17797;DHT22;55596;53.554;9.916;2022-10-16T06:16:56;12.40;99.90
17797;DHT22;55596;53.554;9.916;2022-10-16T06:19:25;12.40;99.90
17797;DHT22;55596;53.554;9.916;2022-10-16T06:21:52;12.20;99.90
17797;DHT22;55596;53.554;9.916;2022-10-16T06:24:19;12.40;99.90
17797;DHT22;55596;53.554;9.916;2022-10-16T06:26:47;12.30;99.90
17797;DHT22;55596;53.554;9.916;2022-10-16T06:29:14;12.30;99.90
17797;DHT22;55596;53.554;9.916;2022-10-16T06:31:40;12.00;99.90
17797;DHT22;55596;53.554;9.916;2022-10-16T06:34:09;12.40;99.90
17797;DHT22;55596;53.554;9.916;2022-10-16T06:36:37;12.50;99.90
17797;DHT22;55596;53.554;9.916;2022-10-16T06:39:04;12.50;99.90
17797;DHT22;55596;53.554;9.916;2022-10-16T06:41:35;12.50;99.90
17797;DHT22;55596;53.554;9.916;2022-10-16T06:44:05;12.60;99.90
17797;DHT22;55596;53.554;9.916;2022-10-16T06:46:31;12.70;99.90
17797;DHT22;55596;53.554;9.916;2022-10-16T06:48:58;12.70;99.90
17797;DHT22;55596;53.554;9.916;2022-10-16T06:51:25;12.70;99.90
17797;DHT22;55596;53.554;9.916;2022-10-16T06:53:54;12.70;99.90
17797;DHT22;55596;53.554;9.916;2022-10-16T06:56:23;12.80;99.90
17797;DHT22;55596;53.554;9.916;2022-10-16T06:58:51;12.80;99.90
17797;DHT22;55596;53.554;9.916;2022-10-16T07:01:22;13.00;99.90
17797;DHT22;55596;53.554;9.916;2022-10-16T07:03:49;13.10;99.90
17797;DHT22;55596;53.554;9.916;2022-10-16T07:06:18;13.20;99.90
17797;DHT22;55596;53.554;9.916;2022-10-16T07:08:46;13.40;99.90
17797;DHT22;55596;53.554;9.916;2022-10-16T07:11:16;13.40;99.90
17797;DHT22;55596;53.554;9.916;2022-10-16T07:13:44;14.50;99.90
17797;DHT22;55596;53.554;9.916;2022-10-16T07:16:12;13.60;99.90
17797;DHT22;55596;53.554;9.916;2022-10-16T07:18:44;13.60;99.90
17797;DHT22;55596;53.554;9.916;2022-10-16T07:21:15;15.60;99.90
17797;DHT22;55596;53.554;9.916;2022-10-16T07:23:45;13.90;99.90
17797;DHT22;55596;53.554;9.916;2022-10-16T07:26:12;13.40;99.90
17797;DHT22;55596;53.554;9.916;2022-10-16T07:28:40;13.60;99.90
17797;DHT22;55596;53.554;9.916;2022-10-16T07:31:12;13.50;99.90
17797;DHT22;55596;53.554;9.916;2022-10-16T07:33:41;13.20;99.90
17797;DHT22;55596;53.554;9.916;2022-10-16T07:36:10;13.60;99.90
17797;DHT22;55596;53.554;9.916;2022-10-16T07:38:37;13.60;99.90
17797;DHT22;55596;53.554;9.916;2022-10-16T07:41:05;15.80;99.90
17797;DHT22;55596;53.554;9.916;2022-10-16T07:43:33;13.60;99.90
17797;DHT22;55596;53.554;9.916;2022-10-16T07:46:00;13.80;99.90
17797;DHT22;55596;53.554;9.916;2022-10-16T07:48:31;13.90;99.90
17797;DHT22;55596;53.554;9.916;2022-10-16T07:51:01;14.00;99.90
17797;DHT22;55596;53.554;9.916;2022-10-16T07:53:28;14.20;99.90
17797;DHT22;55596;53.554;9.916;2022-10-16T07:55:57;14.30;99.90
17797;DHT22;55596;53.554;9.916;2022-10-16T07:58:25;14.10;99.90
17797;DHT22;55596;53.554;9.916;2022-10-16T08:00:52;14.00;99.90
17797;DHT22;55596;53.554;9.916;2022-10-16T08:03:18;13.90;99.90
17797;DHT22;55596;53.554;9.916;2022-10-16T08:05:45;13.90;99.90
17797;DHT22;55596;53.554;9.916;2022-10-16T08:08:15;13.90;99.90
17797;DHT22;55596;53.554;9.916;2022-10-16T08:10:42;13.90;99.90
17797;DHT22;55596;53.554;9.916;2022-10-16T08:13:09;13.90;99.90
17797;DHT22;55596;53.554;9.916;2022-10-16T08:15:38;14.00;99.90
17797;DHT22;55596;53.554;9.916;2022-10-16T08:18:05;13.80;99.90
17797;DHT22;55596;53.554;9.916;2022-10-16T08:20:33;13.70;99.90
17797;DHT22;55596;53.554;9.916;2022-10-16T08:23:00;13.70;99.90
17797;DHT22;55596;53.554;9.916;2022-10-16T08:25:29;13.70;99.90
17797;DHT22;55596;53.554;9.916;2022-10-16T08:27:56;13.90;99.90
17797;DHT22;55596;53.554;9.916;2022-10-16T08:30:24;14.00;99.90
17797;DHT22;55596;53.554;9.916;2022-10-16T08:32:51;14.20;99.90
17797;DHT22;55596;53.554;9.916;2022-10-16T08:35:18;14.40;99.90
17797;DHT22;55596;53.554;9.916;2022-10-16T08:37:45;14.40;99.90
17797;DHT22;55596;53.554;9.916;2022-10-16T08:40:18;14.50;99.90
17797;DHT22;55596;53.554;9.916;2022-10-16T08:43:21;14.50;99.90
17797;DHT22;55596;53.554;9.916;2022-10-16T08:46:08;14.60;99.90
17797;DHT22;55596;53.554;9.916;2022-10-16T08:48:44;15.80;99.90
17797;DHT22;55596;53.554;9.916;2022-10-16T08:51:19;14.80;99.90
17797;DHT22;55596;53.554;9.916;2022-10-16T08:53:51;14.50;99.90
17797;DHT22;55596;53.554;9.916;2022-10-16T08:56:20;14.60;99.90
17797;DHT22;55596;53.554;9.916;2022-10-16T08:58:49;15.00;99.90
17797;DHT22;55596;53.554;9.916;2022-10-16T09:01:20;15.30;99.90
17797;DHT22;55596;53.554;9.916;2022-10-16T09:04:03;15.80;99.90
17797;DHT22;55596;53.554;9.916;2022-10-16T09:06:41;15.20;99.90
17797;DHT22;55596;53.554;9.916;2022-10-16T09:09:29;15.40;99.90
17797;DHT22;55596;53.554;9.916;2022-10-16T09:12:05;15.50;99.90
17797;DHT22;55596;53.554;9.916;2022-10-16T09:14:47;15.70;99.90
17797;DHT22;55596;53.554;9.916;2022-10-16T09:17:30;15.30;99.90
17797;DHT22;55596;53.554;9.916;2022-10-16T09:20:17;15.40;99.90
17797;DHT22;55596;53.554;9.916;2022-10-16T09:22:45;15.60;99.90
17797;DHT22;55596;53.554;9.916;2022-10-16T09:25:13;15.40;99.90
17797;DHT22;55596;53.554;9.916;2022-10-16T09:27:42;16.00;99.90
17797;DHT22;55596;53.554;9.916;2022-10-16T09:30:15;16.10;99.90
17797;DHT22;55596;53.554;9.916;2022-10-16T09:32:43;16.20;99.90
17797;DHT22;55596;53.554;9.916;2022-10-16T09:35:16;16.00;99.90
17797;DHT22;55596;53.554;9.916;2022-10-16T09:37:46;16.30;99.90
17797;DHT22;55596;53.554;9.916;2022-10-16T09:40:24;16.30;99.90
17797;DHT22;55596;53.554;9.916;2022-10-16T09:42:55;16.30;99.90
17797;DHT22;55596;53.554;9.916;2022-10-16T09:45:25;18.50;99.90
17797;DHT22;55596;53.554;9.916;2022-10-16T09:47:53;16.30;99.90
17797;DHT22;55596;53.554;9.916;2022-10-16T09:50:22;17.70;99.90
17797;DHT22;55596;53.554;9.916;2022-10-16T09:52:50;16.20;99.90
17797;DHT22;55596;53.554;9.916;2022-10-16T09:55:18;17.10;99.90
17797;DHT22;55596;53.554;9.916;2022-10-16T09:57:51;17.50;99.90
17797;DHT22;55596;53.554;9.916;2022-10-16T10:00:19;16.40;99.90
17797;DHT22;55596;53.554;9.916;2022-10-16T10:02:48;16.80;99.90
17797;DHT22;55596;53.554;9.916;2022-10-16T10:05:21;16.60;99.90
17797;DHT22;55596;53.554;9.916;2022-10-16T10:07:54;16.40;99.90
17797;DHT22;55596;53.554;9.916;2022-10-16T10:10:23;16.40;99.90
17797;DHT22;55596;53.554;9.916;2022-10-16T10:12:51;16.50;99.90
17797;DHT22;55596;53.554;9.916;2022-10-16T10:15:18;16.60;99.90
17797;DHT22;55596;53.554;9.916;2022-10-16T10:17:50;16.20;99.90
17797;DHT22;55596;53.554;9.916;2022-10-16T10:20:25;16.20;99.90
17797;DHT22;55596;53.554;9.916;2022-10-16T10:22:53;16.10;99.90
17797;DHT22;55596;53.554;9.916;2022-10-16T10:25:38;17.90;99.90
17797;DHT22;55596;53.554;9.916;2022-10-16T10:28:37;16.40;99.90
17797;DHT22;55596;53.554;9.916;2022-10-16T10:31:14;16.30;99.90
17797;DHT22;55596;53.554;9.916;2022-10-16T10:33:47;20.00;99.90
17797;DHT22;55596;53.554;9.916;2022-10-16T10:36:25;16.40;99.90
17797;DHT22;55596;53.554;9.916;2022-10-16T10:38:58;16.90;99.90
17797;DHT22;55596;53.554;9.916;2022-10-16T10:41:38;17.10;99.90
17797;DHT22;55596;53.554;9.916;2022-10-16T10:44:14;17.30;99.90
17797;DHT22;55596;53.554;9.916;2022-10-16T10:46:50;17.70;99.90
17797;DHT22;55596;53.554;9.916;2022-10-16T10:49:34;17.60;99.90
17797;DHT22;55596;53.554;9.916;2022-10-16T10:52:20;17.80;99.90
17797;DHT22;55596;53.554;9.916;2022-10-16T10:54:54;17.60;99.90
17797;DHT22;55596;53.554;9.916;2022-10-16T10:57:29;20.00;99.90
17797;DHT22;55596;53.554;9.916;2022-10-16T11:00:19;17.60;99.90
17797;DHT22;55596;53.554;9.916;2022-10-16T11:02:50;17.30;99.90
17797;DHT22;55596;53.554;9.916;2022-10-16T11:05:38;17.90;99.90
17797;DHT22;55596;53.554;9.916;2022-10-16T11:08:13;19.40;99.90
17797;DHT22;55596;53.554;9.916;2022-10-16T11:10:46;17.70;99.90
17797;DHT22;55596;53.554;9.916;2022-10-16T11:13:24;17.80;99.90
17797;DHT22;55596;53.554;9.916;2022-10-16T11:15:56;18.30;99.90
17797;DHT22;55596;53.554;9.916;2022-10-16T11:18:29;18.10;99.90
17797;DHT22;55596;53.554;9.916;2022-10-16T11:21:02;18.60;99.90
17797;DHT22;55596;53.554;9.916;2022-10-16T11:23:35;19.90;99.90
17797;DHT22;55596;53.554;9.916;2022-10-16T11:26:13;18.20;99.90
17797;DHT22;55596;53.554;9.916;2022-10-16T11:28:43;18.40;99.90
17797;DHT22;55596;53.554;9.916;2022-10-16T11:31:16;18.60;99.90
17797;DHT22;55596;53.554;9.916;2022-10-16T11:33:46;19.00;99.90
17797;DHT22;55596;53.554;9.916;2022-10-16T11:36:19;19.30;99.90
17797;DHT22;55596;53.554;9.916;2022-10-16T11:38:55;19.00;99.90
17797;DHT22;55596;53.554;9.916;2022-10-16T11:41:27;18.80;99.90
17797;DHT22;55596;53.554;9.916;2022-10-16T11:44:10;19.10;99.90
17797;DHT22;55596;53.554;9.916;2022-10-16T11:46:44;18.90;99.90
17797;DHT22;55596;53.554;9.916;2022-10-16T11:49:15;19.10;99.90
17797;DHT22;55596;53.554;9.916;2022-10-16T11:51:50;22.30;99.90
17797;DHT22;55596;53.554;9.916;2022-10-16T11:54:28;18.80;99.90
17797;DHT22;55596;53.554;9.916;2022-10-16T11:57:01;18.40;99.90
17797;DHT22;55596;53.554;9.916;2022-10-16T11:59:33;18.40;99.90
17797;DHT22;55596;53.554;9.916;2022-10-16T12:02:23;17.80;99.90
17797;DHT22;55596;53.554;9.916;2022-10-16T12:05:01;18.00;99.90
17797;DHT22;55596;53.554;9.916;2022-10-16T12:07:36;17.80;99.90
17797;DHT22;55596;53.554;9.916;2022-10-16T12:10:10;17.90;99.90
17797;DHT22;55596;53.554;9.916;2022-10-16T12:12:39;17.90;99.90
17797;DHT22;55596;53.554;9.916;2022-10-16T12:15:22;18.50;99.90
17797;DHT22;55596;53.554;9.916;2022-10-16T12:17:50;19.30;99.90
17797;DHT22;55596;53.554;9.916;2022-10-16T12:20:27;19.20;99.90
17797;DHT22;55596;53.554;9.916;2022-10-16T12:23:00;19.00;99.90
17797;DHT22;55596;53.554;9.916;2022-10-16T12:25:29;19.10;99.90
17797;DHT22;55596;53.554;9.916;2022-10-16T12:28:01;19.80;99.90
17797;DHT22;55596;53.554;9.916;2022-10-16T12:30:31;20.80;99.90
17797;DHT22;55596;53.554;9.916;2022-10-16T12:33:00;20.50;99.90
17797;DHT22;55596;53.554;9.916;2022-10-16T12:35:30;20.90;99.90
17797;DHT22;55596;53.554;9.916;2022-10-16T12:38:08;21.00;99.90
17797;DHT22;55596;53.554;9.916;2022-10-16T12:40:43;20.80;99.90
17797;DHT22;55596;53.554;9.916;2022-10-16T12:43:34;21.00;99.90
17797;DHT22;55596;53.554;9.916;2022-10-16T12:46:05;21.20;99.90
17797;DHT22;55596;53.554;9.916;2022-10-16T12:48:32;21.90;99.90
17797;DHT22;55596;53.554;9.916;2022-10-16T12:51:10;22.50;99.90
17797;DHT22;55596;53.554;9.916;2022-10-16T12:53:39;22.90;99.90
17797;DHT22;55596;53.554;9.916;2022-10-16T12:56:15;22.70;95.30
17797;DHT22;55596;53.554;9.916;2022-10-16T12:59:03;22.90;99.90
17797;DHT22;55596;53.554;9.916;2022-10-16T13:01:41;23.20;97.10
17797;DHT22;55596;53.554;9.916;2022-10-16T13:07:28;23.00;99.90
17797;DHT22;55596;53.554;9.916;2022-10-16T13:10:08;23.20;97.00
17797;DHT22;55596;53.554;9.916;2022-10-16T13:15:41;22.90;99.00
17797;DHT22;55596;53.554;9.916;2022-10-16T13:18:15;22.80;99.90
17797;DHT22;55596;53.554;9.916;2022-10-16T13:20:56;23.10;96.10
17797;DHT22;55596;53.554;9.916;2022-10-16T13:23:27;23.40;98.70
17797;DHT22;55596;53.554;9.916;2022-10-16T13:26:07;23.40;94.90
17797;DHT22;55596;53.554;9.916;2022-10-16T13:28:38;24.20;89.20
17797;DHT22;55596;53.554;9.916;2022-10-16T13:31:14;24.40;87.10
17797;DHT22;55596;53.554;9.916;2022-10-16T13:33:45;25.00;79.10
17797;DHT22;55596;53.554;9.916;2022-10-16T13:36:20;25.10;91.30
17797;DHT22;55596;53.554;9.916;2022-10-16T13:38:47;24.80;91.60
17797;DHT22;55596;53.554;9.916;2022-10-16T13:41:17;24.50;93.80
17797;DHT22;55596;53.554;9.916;2022-10-16T13:43:47;24.50;92.80
17797;DHT22;55596;53.554;9.916;2022-10-16T13:46:18;24.90;89.60
17797;DHT22;55596;53.554;9.916;2022-10-16T13:48:56;25.40;90.80
17797;DHT22;55596;53.554;9.916;2022-10-16T13:51:23;25.70;87.30
17797;DHT22;55596;53.554;9.916;2022-10-16T13:53:55;26.00;76.60
17797;DHT22;55596;53.554;9.916;2022-10-16T13:56:26;25.20;80.00
17797;DHT22;55596;53.554;9.916;2022-10-16T13:59:00;25.10;80.80
17797;DHT22;55596;53.554;9.916;2022-10-16T14:01:29;25.30;82.70
17797;DHT22;55596;53.554;9.916;2022-10-16T14:04:02;25.80;76.00
17797;DHT22;55596;53.554;9.916;2022-10-16T14:06:31;26.10;68.10
17797;DHT22;55596;53.554;9.916;2022-10-16T14:09:01;25.50;59.80
17797;DHT22;55596;53.554;9.916;2022-10-16T14:11:30;25.10;73.20
17797;DHT22;55596;53.554;9.916;2022-10-16T14:14:00;23.40;58.70
17797;DHT22;55596;53.554;9.916;2022-10-16T14:16:30;23.70;63.40
17797;DHT22;55596;53.554;9.916;2022-10-16T14:18:59;23.40;64.00
17797;DHT22;55596;53.554;9.916;2022-10-16T14:21:31;23.00;87.40
17797;DHT22;55596;53.554;9.916;2022-10-16T14:23:58;22.40;82.40
17797;DHT22;55596;53.554;9.916;2022-10-16T14:26:27;21.40;86.80
17797;DHT22;55596;53.554;9.916;2022-10-16T14:29:13;21.30;84.20
17797;DHT22;55596;53.554;9.916;2022-10-16T14:31:41;21.10;97.00
17797;DHT22;55596;53.554;9.916;2022-10-16T14:34:26;20.80;99.90
17797;DHT22;55596;53.554;9.916;2022-10-16T14:36:54;22.90;99.90
17797;DHT22;55596;53.554;9.916;2022-10-16T14:39:22;20.30;99.90
17797;DHT22;55596;53.554;9.916;2022-10-16T14:41:51;20.50;99.90
17797;DHT22;55596;53.554;9.916;2022-10-16T14:44:29;20.20;99.90
17797;DHT22;55596;53.554;9.916;2022-10-16T14:46:58;20.60;99.90
17797;DHT22;55596;53.554;9.916;2022-10-16T14:49:25;20.30;99.90
17797;DHT22;55596;53.554;9.916;2022-10-16T14:51:53;20.50;99.90
17797;DHT22;55596;53.554;9.916;2022-10-16T14:54:20;20.30;99.90
17797;DHT22;55596;53.554;9.916;2022-10-16T14:56:50;20.10;99.90
17797;DHT22;55596;53.554;9.916;2022-10-16T14:59:22;19.80;99.90
17797;DHT22;55596;53.554;9.916;2022-10-16T15:01:51;20.70;99.90
17797;DHT22;55596;53.554;9.916;2022-10-16T15:04:18;21.40;99.90
17797;DHT22;55596;53.554;9.916;2022-10-16T15:06:45;18.80;99.90
17797;DHT22;55596;53.554;9.916;2022-10-16T15:09:12;18.70;99.90
17797;DHT22;55596;53.554;9.916;2022-10-16T15:11:40;18.60;99.90
17797;DHT22;55596;53.554;9.916;2022-10-16T15:14:10;18.40;99.90
17797;DHT22;55596;53.554;9.916;2022-10-16T15:16:39;18.20;99.90
17797;DHT22;55596;53.554;9.916;2022-10-16T15:19:06;18.10;99.90
17797;DHT22;55596;53.554;9.916;2022-10-16T15:21:33;18.70;99.90
17797;DHT22;55596;53.554;9.916;2022-10-16T15:24:00;18.10;99.90
17797;DHT22;55596;53.554;9.916;2022-10-16T15:26:28;17.90;99.90
17797;DHT22;55596;53.554;9.916;2022-10-16T15:28:56;18.80;99.90
17797;DHT22;55596;53.554;9.916;2022-10-16T15:31:24;17.30;99.90
17797;DHT22;55596;53.554;9.916;2022-10-16T15:33:55;17.20;99.90
17797;DHT22;55596;53.554;9.916;2022-10-16T15:36:28;17.00;99.90
17797;DHT22;55596;53.554;9.916;2022-10-16T15:38:56;16.80;99.90
17797;DHT22;55596;53.554;9.916;2022-10-16T15:41:23;18.20;99.90
17797;DHT22;55596;53.554;9.916;2022-10-16T15:43:51;16.60;99.90
17797;DHT22;55596;53.554;9.916;2022-10-16T15:46:19;16.90;99.90
17797;DHT22;55596;53.554;9.916;2022-10-16T15:48:47;19.00;99.90
17797;DHT22;55596;53.554;9.916;2022-10-16T15:51:17;16.30;99.90
17797;DHT22;55596;53.554;9.916;2022-10-16T15:53:47;16.20;99.90
17797;DHT22;55596;53.554;9.916;2022-10-16T15:56:16;15.80;99.90
17797;DHT22;55596;53.554;9.916;2022-10-16T15:58:44;15.90;99.90